JNX weather

Johnston County Airport
Smithfield, North Carolina, United States

Public forecast

Using degrees Fahrenheit for public forecast. Weather courtesy of forecast.io.

METAR (pilot weather report)

Retrieved 2019/07/16 03:35 UTC (11 minutes ago):

KJNX 160335Z AUTO 00000KT 10SM CLR 26/26 A3007 RMK AO2

TAF (pilot weather forecast)

Closest forecast is Seymour Johnson Air Force Base, 24.3 nm (44.9 km) ESE. Retrieved 2019/07/16 04:12 UTC (0 seconds ago):

TAF KGSB 160400Z 1604/1710 18003KT 9999 FEW060 SCT200 QNH3002INS TEMPO 1609/1611 21003KT 8000 BR BECMG 1614/1615 22005KT 9999 SCT060 SCT170 QNH3004INS BECMG 1617/1618 21010G15KT 9999 VCTS BKN050CB QNH3000INS TEMPO 1619/1623 18012G18KT 8000 -TSRA BECMG 1623/1624 16006KT 9999 NSW BKN035 QNH3002INS TX36/1619Z TN23/1610Z